createdAt,value
2023-04-04T00:02:01.639Z,99509.71
2023-04-04T00:07:03.345Z,99506.38
2023-04-04T00:12:05.986Z,99504.70
2023-04-04T00:17:07.666Z,99498.44
2023-04-04T00:22:09.361Z,99500.08
2023-04-04T00:27:11.020Z,99499.59
2023-04-04T00:32:12.766Z,99498.48
2023-04-04T00:37:14.673Z,99497.88
2023-04-04T00:42:16.321Z,99494.40
2023-04-04T00:47:17.984Z,99494.41
2023-04-04T00:52:19.949Z,99495.14
2023-04-04T00:57:22.534Z,99495.33
2023-04-04T01:02:25.620Z,99502.95
2023-04-04T01:07:27.648Z,99503.91
2023-04-04T01:12:30.222Z,99496.99
2023-04-04T01:17:32.460Z,99501.33
2023-04-04T01:22:36.008Z,99499.85
2023-04-04T01:27:38.810Z,99494.28
2023-04-04T01:32:59.676Z,99495.11
2023-04-04T01:38:52.127Z,99505.58
2023-04-04T01:43:56.309Z,99507.20
2023-04-04T01:48:58.909Z,99511.31
2023-04-04T01:54:04.898Z,99508.74
2023-04-04T01:59:07.380Z,99508.46
2023-04-04T02:04:11.349Z,99513.69
2023-04-04T02:09:13.906Z,99513.11
2023-04-04T02:14:16.368Z,99513.85
2023-04-04T02:19:18.846Z,99517.63
2023-04-04T02:24:20.558Z,99518.43
2023-04-04T02:29:23.119Z,99519.85
2023-04-04T02:34:25.878Z,99523.47
2023-04-04T02:39:27.969Z,99525.42
2023-04-04T02:44:30.418Z,99523.30
2023-04-04T02:49:32.958Z,99520.55
2023-04-04T02:54:35.379Z,99522.67
2023-04-04T02:59:38.498Z,99520.05
2023-04-04T03:04:40.657Z,99521.86
2023-04-04T03:09:45.193Z,99524.70
2023-04-04T03:14:47.600Z,99522.95
2023-04-04T03:19:49.463Z,99528.40
2023-04-04T03:24:51.224Z,99529.74
2023-04-04T03:29:54.929Z,99530.52
2023-04-04T03:34:56.912Z,99530.41
2023-04-04T03:39:58.544Z,99528.30
2023-04-04T03:45:00.854Z,99531.47
2023-04-04T03:50:06.731Z,99529.92
2023-04-04T03:55:09.994Z,99523.21
2023-04-04T04:00:12.434Z,99523.07
2023-04-04T20:09:34.927Z,99469.50
2023-04-04T20:14:37.163Z,99470.70
2023-04-04T20:19:38.874Z,99473.45
2023-04-04T20:24:42.609Z,99472.75
2023-04-04T20:29:44.616Z,99476.08
2023-04-04T20:34:49.313Z,99478.06
2023-04-04T20:39:55.806Z,99480.84
2023-04-04T20:45:31.913Z,99474.08
2023-04-04T20:50:33.558Z,99477.11
2023-04-04T20:55:35.803Z,99475.85
2023-04-04T21:00:42.363Z,99474.17
2023-04-04T21:05:44.808Z,99469.91
2023-04-04T21:10:53.004Z,99478.64
2023-04-04T21:16:00.723Z,99478.38
2023-04-04T21:21:11.909Z,99476.74
2023-04-04T21:26:37.104Z,99474.67
2023-04-04T21:31:41.241Z,99471.77
2023-04-04T21:36:45.083Z,99467.23
2023-04-04T21:41:50.427Z,99467.77
2023-04-04T21:46:55.243Z,99462.73
2023-04-04T21:51:56.953Z,99461.64
2023-04-04T21:57:00.913Z,99453.02
2023-04-04T22:02:02.777Z,99451.29
2023-04-04T22:07:04.494Z,99447.76
2023-04-04T22:12:16.014Z,99443.29
2023-04-04T22:17:24.004Z,99435.70
2023-04-04T22:22:30.400Z,99433.19
2023-04-04T22:27:33.225Z,99439.13
2023-04-04T22:32:35.255Z,99441.21
2023-04-04T22:37:38.630Z,99434.23
2023-04-04T22:42:40.632Z,99437.10
2023-04-04T22:47:47.364Z,99434.20
2023-04-04T22:52:49.744Z,99429.51
2023-04-04T22:57:51.567Z,99428.64
2023-04-04T23:02:53.272Z,99423.55
2023-04-04T23:08:01.397Z,99422.52
2023-04-04T23:13:08.564Z,99414.44
2023-04-04T23:18:11.467Z,99412.16
2023-04-04T23:23:13.652Z,99409.55
2023-04-04T23:28:16.488Z,99407.35
2023-04-04T23:33:18.229Z,99406.61
2023-04-04T23:38:19.843Z,99399.39
2023-04-04T23:43:22.593Z,99393.90
2023-04-04T23:48:25.422Z,99393.84
2023-04-04T23:53:29.667Z,99391.44
2023-04-04T23:58:31.357Z,99388.11
